CheckWX is a tool to help pilots better visualize weather data.  It is not intended as a substitute for an official pre-flight weather briefing.

16:53:51 UTC

FMMI TAF
Ivato Airport
Antananarivo, Madagascar
TAF FMMI 181100Z 1812/1918 13010KT 9999 FEW017 BKN020 PROB30 TEMPO 1821/1904 4500 DZRA

Jun-18@
12:00 UTC

Jun-18 @ 12:00 UTC

Jun-19@
18:00 UTC

Jun-19 @ 18:00 UTC

TAF FMMI 181100Z 1812/1918 13010KT 9999 FEW017 BKN020
Wind
  • 130° at 10 KTS
Cloud Levels
  • Few at 1,700' AGL
  • Broken at 2,000' AGL

Jun-18@
21:00 UTC

Jun-18 @ 21:00 UTC

Jun-19@
04:00 UTC

Jun-19 @ 04:00 UTC

PROB30 TEMPO 1821/1904 4500 DZRA

Temporary - 30% Likelihood

Temporary - 30% Likelihood during this time.

Conditions
Drizzle, Rain